createdAt,value
2019-01-13T00:01:18.889Z,98712.31
2019-01-13T00:03:47.320Z,98710.49
2019-01-13T00:06:14.096Z,98715.16
2019-01-13T00:08:41.256Z,98724.14
2019-01-13T00:11:08.101Z,98710.97
2019-01-13T00:13:35.385Z,98707.83
2019-01-13T00:16:02.596Z,98714.63
2019-01-13T00:18:29.535Z,98712.31
2019-01-13T00:21:00.425Z,98706.99
2019-01-13T00:23:27.215Z,98712.34
2019-01-13T00:25:54.042Z,98711.77
2019-01-13T00:28:21.040Z,98709.69
2019-01-13T00:30:48.020Z,98704.24
2019-01-13T00:33:18.275Z,98707.09
2019-01-13T00:35:45.126Z,98710.23
2019-01-13T00:38:11.952Z,98703.53
2019-01-13T00:40:43.401Z,98703.53
2019-01-13T00:43:14.152Z,98700.03
2019-01-13T00:45:40.986Z,98700.03
2019-01-13T00:48:07.771Z,98701.09
2019-01-13T00:50:37.331Z,98701.64
2019-01-13T00:53:09.159Z,98693.17
2019-01-13T00:55:35.987Z,98693.17
2019-01-13T00:58:04.289Z,98707.66
2019-01-13T01:00:31.313Z,98715.80
2019-01-13T01:02:58.064Z,98714.26
2019-01-13T01:05:27.571Z,98711.38
2019-01-13T01:07:56.961Z,98714.80
2019-01-13T01:10:28.500Z,98713.56
2019-01-13T01:12:56.999Z,98716.73
2019-01-13T01:15:24.022Z,98718.05
2019-01-13T01:17:50.899Z,98716.22
2019-01-13T01:20:17.791Z,98717.44
2019-01-13T01:22:44.508Z,98714.55
2019-01-13T01:25:12.730Z,98715.80
2019-01-13T01:27:39.563Z,98715.25
2019-01-13T01:30:14.260Z,98704.48
2019-01-13T01:32:45.615Z,98722.17
2019-01-13T01:35:14.618Z,98713.49
2019-01-13T01:37:42.840Z,98719.80
2019-01-13T01:40:12.559Z,98720.34
2019-01-13T01:42:39.295Z,98728.34
2019-01-13T01:45:07.987Z,98728.08
2019-01-13T01:47:34.770Z,98726.44
2019-01-13T01:50:07.061Z,98733.59
2019-01-13T01:52:33.930Z,98724.43
2019-01-13T01:55:02.901Z,98727.56
2019-01-13T01:57:29.743Z,98733.44
2019-01-13T01:59:57.919Z,98725.01
2019-01-13T02:02:27.011Z,98720.01
2019-01-13T02:04:58.073Z,98720.05
2019-01-13T02:07:24.793Z,98711.88
2019-01-13T02:09:51.561Z,98706.10
2019-01-13T02:12:21.275Z,98695.53
2019-01-13T02:14:52.796Z,98695.53
2019-01-13T02:17:19.635Z,98695.34
2019-01-13T02:19:46.503Z,98705.59
2019-01-13T02:22:19.351Z,98693.25
2019-01-13T02:24:54.107Z,98695.63
2019-01-13T02:27:22.688Z,98695.34
2019-01-13T02:29:49.681Z,98689.80
2019-01-13T02:32:22.364Z,98681.37
2019-01-13T02:34:49.011Z,98679.73
2019-01-13T02:37:15.772Z,98687.94
2019-01-13T02:39:42.541Z,98676.34
2019-01-13T02:42:09.285Z,98684.22
2019-01-13T02:44:38.758Z,98688.13
2019-01-13T02:47:05.494Z,98690.27
2019-01-13T02:49:32.237Z,98685.59
2019-01-13T02:52:00.107Z,98694.31
2019-01-13T02:54:33.152Z,98693.25
2019-01-13T02:56:59.968Z,98693.28
2019-01-13T02:59:26.742Z,98695.08
2019-01-13T03:01:53.496Z,98684.60
2019-01-13T03:04:27.265Z,98684.44
2019-01-13T03:06:56.962Z,98687.84
2019-01-13T03:09:23.727Z,98684.41
2019-01-13T03:11:55.363Z,98686.75
2019-01-13T03:14:22.133Z,98683.09
2019-01-13T03:16:48.939Z,98682.87
2019-01-13T03:19:15.698Z,98684.44
2019-01-13T03:21:42.457Z,98682.06
2019-01-13T03:24:13.359Z,98685.66
2019-01-13T03:26:40.117Z,98680.47
2019-01-13T03:29:06.947Z,98683.83
2019-01-13T03:31:40.864Z,98666.30
2019-01-13T03:34:12.428Z,98663.67
2019-01-13T03:36:39.235Z,98659.73
2019-01-13T03:39:07.771Z,98649.22
2019-01-13T03:41:36.138Z,98648.16
2019-01-13T03:44:03.048Z,98649.79
2019-01-13T03:46:29.791Z,98642.19
2019-01-13T03:48:56.564Z,98635.59
2019-01-13T03:51:27.068Z,98637.19
2019-01-13T03:54:02.011Z,98642.42
2019-01-13T03:56:28.815Z,98627.94
2019-01-13T03:58:55.523Z,98620.93
2019-01-13T04:01:24.487Z,98622.53
2019-01-13T04:03:52.669Z,98630.67
2019-01-13T04:06:19.459Z,98624.84
2019-01-13T04:08:46.271Z,98619.82
2019-01-13T04:11:15.791Z,98621.94
2019-01-13T04:13:45.777Z,98629.56
2019-01-13T04:16:12.496Z,98627.70
2019-01-13T04:18:39.434Z,98625.62
2019-01-13T04:21:06.181Z,98617.16
2019-01-13T04:23:34.947Z,98618.80
2019-01-13T04:26:06.001Z,98624.53
2019-01-13T04:28:32.715Z,98621.91
2019-01-13T04:30:59.486Z,98617.73
2019-01-13T04:33:30.433Z,98614.64
2019-01-13T04:36:01.618Z,98623.53
2019-01-13T04:38:28.334Z,98617.50
2019-01-13T04:40:55.131Z,98615.67
2019-01-13T04:43:21.854Z,98623.51
2019-01-13T04:45:48.730Z,98622.47
2019-01-13T04:48:15.482Z,98615.59
2019-01-13T04:50:42.220Z,98614.20
2019-01-13T04:53:10.724Z,98607.11
2019-01-13T04:55:41.693Z,98609.74
2019-01-13T04:58:08.454Z,98611.91
2019-01-13T05:00:35.173Z,98601.14
2019-01-13T05:03:02.636Z,98603.97
2019-01-13T05:05:30.659Z,98599.23
2019-01-13T05:07:57.492Z,98601.29
2019-01-13T05:10:26.132Z,98605.06
2019-01-13T05:12:54.239Z,98599.29
2019-01-13T05:15:20.977Z,98596.32
2019-01-13T05:17:47.724Z,98580.84
2019-01-13T05:20:15.792Z,98576.95
2019-01-13T05:22:42.800Z,98575.35
2019-01-13T05:25:09.537Z,98551.47
2019-01-13T05:27:36.440Z,98534.64
2019-01-13T05:30:06.667Z,98528.05
2019-01-13T05:32:33.498Z,98528.15
2019-01-13T05:35:00.635Z,98519.70
2019-01-13T05:37:28.303Z,98515.76
2019-01-13T05:39:56.562Z,98514.42
2019-01-13T05:42:26.109Z,98516.52
2019-01-13T05:44:52.890Z,98527.23
2019-01-13T05:47:19.679Z,98517.75
2019-01-13T05:49:47.088Z,98514.34
2019-01-13T05:52:13.924Z,98516.74
2019-01-13T05:54:40.710Z,98511.02
2019-01-13T05:57:07.460Z,98512.57
2019-01-13T05:59:34.186Z,98511.94
2019-01-13T06:02:00.926Z,98516.74
2019-01-13T06:04:30.055Z,98519.19
2019-01-13T06:06:56.829Z,98502.89
2019-01-13T06:09:23.567Z,98509.66
2019-01-13T06:11:50.853Z,98498.34
2019-01-13T06:14:17.614Z,98489.34
2019-01-13T06:16:44.978Z,98482.56
2019-01-13T06:19:11.780Z,98471.27
2019-01-13T06:21:38.554Z,98475.55
2019-01-13T06:24:05.281Z,98478.41
2019-01-13T06:26:32.432Z,98468.34
2019-01-13T06:28:59.168Z,98451.52
2019-01-13T06:31:26.248Z,98456.24
2019-01-13T06:33:53.327Z,98459.89
2019-01-13T06:36:20.778Z,98463.05
2019-01-13T06:38:47.619Z,98455.47
2019-01-13T06:41:14.522Z,98433.38
2019-01-13T06:43:41.403Z,98432.34
2019-01-13T06:46:08.203Z,98437.61
2019-01-13T06:48:34.951Z,98442.61
2019-01-13T06:51:01.733Z,98437.08
2019-01-13T06:53:28.797Z,98438.95
2019-01-13T06:55:55.657Z,98439.20
2019-01-13T06:58:22.846Z,98428.73
2019-01-13T07:00:49.676Z,98431.90
2019-01-13T07:03:17.771Z,98414.86
2019-01-13T07:05:44.624Z,98409.31
2019-01-13T07:08:11.479Z,98412.65
2019-01-13T07:10:38.274Z,98412.64
2019-01-13T07:13:05.052Z,98418.39
2019-01-13T07:15:31.867Z,98410.82
2019-01-13T07:17:58.731Z,98392.67
2019-01-13T07:20:25.967Z,98399.81
2019-01-13T07:22:52.788Z,98397.92
2019-01-13T07:25:19.750Z,98406.34
2019-01-13T07:27:46.708Z,98418.44
2019-01-13T07:30:15.669Z,98418.19
2019-01-13T07:32:42.631Z,98415.06
2019-01-13T07:35:09.460Z,98409.31
2019-01-13T07:37:36.242Z,98404.55
2019-01-13T07:40:05.661Z,98406.88
2019-01-13T07:42:32.423Z,98403.14
2019-01-13T07:44:59.135Z,98407.13
2019-01-13T07:47:25.881Z,98401.07
2019-01-13T07:49:52.741Z,98392.14
2019-01-13T07:52:19.603Z,98392.75
2019-01-13T07:54:46.460Z,98386.11
2019-01-13T07:57:13.229Z,98389.52
2019-01-13T07:59:39.941Z,98391.09
2019-01-13T08:02:06.734Z,98386.44
2019-01-13T08:04:33.565Z,98385.06
2019-01-13T08:07:00.355Z,98385.64
2019-01-13T08:09:27.328Z,98377.28
2019-01-13T08:11:54.211Z,98383.06
2019-01-13T08:14:21.067Z,98377.52
2019-01-13T08:16:47.887Z,98381.45
2019-01-13T08:19:16.542Z,98382.53
2019-01-13T08:21:43.745Z,98382.80
2019-01-13T08:24:10.553Z,98386.47
2019-01-13T08:26:37.445Z,98396.98
2019-01-13T08:29:04.215Z,98401.94
2019-01-13T08:31:31.017Z,98406.19
2019-01-13T08:33:58.795Z,98416.20
2019-01-13T08:36:25.977Z,98403.06
2019-01-13T08:38:53.321Z,98405.41
2019-01-13T08:41:20.089Z,98393.33
2019-01-13T08:43:46.940Z,98396.25
2019-01-13T08:46:15.280Z,98397.56
2019-01-13T08:48:42.790Z,98393.87
2019-01-13T08:51:09.541Z,98391.23
2019-01-13T08:53:36.849Z,98386.27
2019-01-13T08:56:05.244Z,98381.55
2019-01-13T08:58:32.001Z,98384.98
2019-01-13T09:00:59.065Z,98383.67
2019-01-13T09:03:28.170Z,98370.24
2019-01-13T09:05:54.923Z,98373.42
2019-01-13T09:08:21.691Z,98368.95
2019-01-13T09:10:48.724Z,98361.33
2019-01-13T09:13:15.615Z,98361.85
2019-01-13T09:15:42.603Z,98364.48
2019-01-13T09:18:09.344Z,98368.69
2019-01-13T09:20:36.096Z,98363.44
2019-01-13T09:23:03.512Z,98353.98
2019-01-13T09:25:34.758Z,98354.80
2019-01-13T09:28:01.717Z,98343.48
2019-01-13T09:30:29.009Z,98331.66
2019-01-13T09:32:55.849Z,98333.21
2019-01-13T09:35:22.634Z,98334.80
2019-01-13T09:37:49.404Z,98330.33
2019-01-13T09:40:21.421Z,98324.30
2019-01-13T09:42:48.170Z,98313.79
2019-01-13T09:45:15.186Z,98315.59
2019-01-13T09:47:41.932Z,98308.00
2019-01-13T09:50:11.094Z,98306.17
2019-01-13T09:52:37.898Z,98298.55
2019-01-13T09:55:05.471Z,98284.08
2019-01-13T09:57:35.561Z,98289.62
2019-01-13T10:00:04.045Z,98279.88
2019-01-13T10:02:31.033Z,98311.19
2019-01-13T10:04:57.883Z,98278.83
2019-01-13T10:07:27.106Z,98278.31
2019-01-13T10:09:53.926Z,98261.23
2019-01-13T10:12:20.673Z,98265.41
2019-01-13T10:14:47.513Z,98245.95
2019-01-13T10:17:14.363Z,98256.75
2019-01-13T10:19:43.796Z,98245.17
2019-01-13T10:22:10.571Z,98242.53
2019-01-13T10:24:37.708Z,98234.91
2019-01-13T10:27:04.578Z,98247.00
2019-01-13T10:29:31.382Z,98253.59
2019-01-13T10:31:58.152Z,98239.65
2019-01-13T10:34:25.227Z,98244.12
2019-01-13T10:36:52.368Z,98229.92
2019-01-13T10:39:19.374Z,98214.39
2019-01-13T10:41:49.236Z,98213.59
2019-01-13T10:44:16.464Z,98226.23
2019-01-13T10:46:45.438Z,98205.98
2019-01-13T10:49:14.440Z,98195.19
2019-01-13T10:51:41.208Z,98199.12
2019-01-13T10:54:09.265Z,98193.34
2019-01-13T10:56:36.431Z,98192.55
2019-01-13T10:59:03.364Z,98189.38
2019-01-13T11:01:30.235Z,98176.49
2019-01-13T11:03:57.241Z,98163.58
2019-01-13T11:06:24.168Z,98161.71
2019-01-13T11:08:57.982Z,98149.91
2019-01-13T11:11:30.351Z,98146.47
2019-01-13T11:13:57.093Z,98144.36
2019-01-13T11:16:26.811Z,98147.55
2019-01-13T11:18:53.894Z,98135.16
2019-01-13T11:21:20.926Z,98124.34
2019-01-13T11:23:48.068Z,98115.41
2019-01-13T11:26:14.987Z,98119.88
2019-01-13T11:28:41.748Z,98127.26
2019-01-13T11:31:08.615Z,98119.60
2019-01-13T11:33:35.371Z,98119.36
2019-01-13T11:36:02.246Z,98118.28
2019-01-13T11:38:29.027Z,98107.50
2019-01-13T11:40:55.812Z,98118.00
2019-01-13T11:43:22.934Z,98129.31
2019-01-13T11:45:52.972Z,98110.89
2019-01-13T11:48:21.216Z,98096.94
2019-01-13T11:50:48.539Z,98098.30
2019-01-13T11:53:15.873Z,98089.59
2019-01-13T11:55:47.800Z,98091.44
2019-01-13T11:58:15.804Z,98085.89
2019-01-13T12:00:45.343Z,98087.48
2019-01-13T12:03:16.972Z,98085.38
2019-01-13T12:05:43.848Z,98075.94
2019-01-13T12:08:10.929Z,98078.30
2019-01-13T12:10:37.731Z,98062.50
2019-01-13T12:13:04.721Z,98051.69
2019-01-13T12:15:31.532Z,98065.91
2019-01-13T12:17:58.273Z,98050.63
2019-01-13T12:20:31.755Z,98050.63
2019-01-13T12:22:58.513Z,98042.22
2019-01-13T12:25:25.442Z,98041.13
2019-01-13T12:27:55.869Z,98033.75
2019-01-13T12:30:25.304Z,98042.74
2019-01-13T12:32:52.736Z,98026.09
2019-01-13T12:35:19.489Z,98021.33
2019-01-13T12:37:46.458Z,98027.17
2019-01-13T12:40:19.267Z,98028.19
2019-01-13T12:42:46.687Z,98044.80
2019-01-13T12:45:20.774Z,98028.49
2019-01-13T12:47:55.759Z,98023.23
2019-01-13T12:50:27.785Z,97998.20
2019-01-13T12:52:56.856Z,97988.98
2019-01-13T12:55:23.838Z,98004.78
2019-01-13T12:57:54.973Z,98002.39
2019-01-13T13:00:24.366Z,97991.06
2019-01-13T13:02:51.501Z,98016.06
2019-01-13T13:05:18.270Z,97978.39
2019-01-13T13:07:45.276Z,97993.09
2019-01-13T13:10:24.803Z,97979.67
2019-01-13T13:12:51.685Z,97995.19
2019-01-13T13:15:18.752Z,97992.06
2019-01-13T13:17:48.847Z,98005.29
2019-01-13T13:20:18.628Z,98008.95
2019-01-13T13:22:45.488Z,98000.73
2019-01-13T13:25:12.784Z,98017.87
2019-01-13T13:27:44.918Z,98004.94
2019-01-13T13:30:19.831Z,98010.48
2019-01-13T13:32:48.616Z,98013.13
2019-01-13T13:35:15.529Z,98013.41
2019-01-13T13:37:42.624Z,97998.94
2019-01-13T13:40:24.703Z,98002.89
2019-01-13T13:42:51.820Z,97997.61
2019-01-13T13:45:18.588Z,97995.22
2019-01-13T13:47:51.008Z,97981.80
2019-01-13T13:50:24.011Z,97987.58
2019-01-13T13:52:50.853Z,97987.52
2019-01-13T13:55:17.665Z,97972.52
2019-01-13T13:57:44.415Z,97971.77
2019-01-13T14:00:22.657Z,97961.23
2019-01-13T14:02:49.545Z,97992.56
2019-01-13T14:05:16.593Z,97958.34
2019-01-13T14:07:47.542Z,97979.42
2019-01-13T14:10:17.746Z,97983.13
2019-01-13T14:12:44.620Z,97965.22
2019-01-13T14:15:11.890Z,97974.42
2019-01-13T14:17:39.091Z,97970.25
2019-01-13T14:20:08.761Z,97965.94
2019-01-13T14:22:36.005Z,97968.73
2019-01-13T14:25:04.380Z,97948.05
2019-01-13T14:27:31.270Z,97952.48
2019-01-13T14:30:00.400Z,97957.66
2019-01-13T14:32:27.328Z,97942.52
2019-01-13T14:34:55.259Z,97918.52
2019-01-13T14:37:22.313Z,97911.16
2019-01-13T14:39:50.464Z,97899.06
2019-01-13T14:42:17.896Z,97900.91
2019-01-13T14:44:45.301Z,97885.68
2019-01-13T14:47:12.114Z,97885.68
2019-01-13T14:49:39.187Z,97890.64
2019-01-13T14:52:06.268Z,97890.64
2019-01-13T14:54:40.138Z,97888.73
2019-01-13T14:57:06.924Z,97878.70
2019-01-13T14:59:33.858Z,97873.16
2019-01-13T15:02:00.788Z,97880.22
2019-01-13T15:04:27.548Z,97870.20
2019-01-13T15:06:54.333Z,97865.18
2019-01-13T15:09:21.546Z,97884.13
2019-01-13T15:11:49.258Z,97888.88
2019-01-13T15:14:16.091Z,97896.20
2019-01-13T15:16:42.951Z,97881.17
2019-01-13T15:19:09.711Z,97882.98
2019-01-13T15:21:36.627Z,97870.05
2019-01-13T15:24:03.455Z,97856.12
2019-01-13T15:26:30.199Z,97843.19
2019-01-13T15:28:58.140Z,97842.97
2019-01-13T15:31:25.269Z,97838.44
2019-01-13T15:33:54.413Z,97837.67
2019-01-13T15:36:23.443Z,97857.66
2019-01-13T15:38:50.216Z,97841.53
2019-01-13T15:41:17.374Z,97829.68
2019-01-13T15:43:44.322Z,97844.45
2019-01-13T15:46:11.090Z,97836.28
2019-01-13T15:48:37.950Z,97824.74
2019-01-13T15:51:04.794Z,97822.30
2019-01-13T15:53:31.880Z,97818.95
2019-01-13T15:55:58.726Z,97829.03
2019-01-13T15:58:25.710Z,97831.13
2019-01-13T16:00:52.426Z,97850.30
2019-01-13T16:03:19.406Z,97836.89
2019-01-13T16:05:46.388Z,97817.96
2019-01-13T16:08:14.642Z,97820.09
2019-01-13T16:10:41.439Z,97812.50
2019-01-13T16:13:08.469Z,97818.56
2019-01-13T16:15:35.307Z,97798.54
2019-01-13T16:18:02.275Z,97815.64
2019-01-13T16:20:34.756Z,97836.91
2019-01-13T16:23:01.864Z,97813.70
2019-01-13T16:25:29.016Z,97804.98
2019-01-13T16:27:55.923Z,97797.56
2019-01-13T16:30:26.308Z,97788.94
2019-01-13T16:32:53.037Z,97775.19
2019-01-13T16:35:19.805Z,97784.89
2019-01-13T16:37:47.205Z,97766.18
2019-01-13T16:40:19.194Z,97787.77
2019-01-13T16:42:46.062Z,97767.23
2019-01-13T16:45:13.094Z,97763.99
2019-01-13T16:47:39.954Z,97759.28
2019-01-13T16:50:12.900Z,97754.51
2019-01-13T16:52:39.882Z,97770.32
2019-01-13T16:55:07.424Z,97760.48
2019-01-13T16:57:34.132Z,97768.11
2019-01-13T17:00:01.683Z,97771.53
2019-01-13T17:02:33.127Z,97765.05
2019-01-13T17:04:57.601Z,97754.74
2019-01-13T17:07:24.367Z,97757.91
2019-01-13T17:09:51.432Z,97756.88
2019-01-13T17:12:18.303Z,97763.97
2019-01-13T17:14:45.332Z,97778.45
2019-01-13T17:17:12.166Z,97766.08
2019-01-13T17:19:39.199Z,97764.77
2019-01-13T17:22:06.183Z,97794.25
2019-01-13T17:24:32.988Z,97786.36
2019-01-13T17:26:59.844Z,97793.77
2019-01-13T17:29:26.924Z,97767.44
2019-01-13T17:31:53.854Z,97774.32
2019-01-13T17:34:20.835Z,97760.37
2019-01-13T17:36:47.620Z,97766.73
2019-01-13T17:39:14.476Z,97770.92
2019-01-13T17:41:43.374Z,97768.59
2019-01-13T17:44:11.456Z,97761.75
2019-01-13T17:46:38.268Z,97756.96
2019-01-13T17:49:05.725Z,97752.80
2019-01-13T17:51:32.980Z,97757.01
2019-01-13T17:53:59.834Z,97762.52
2019-01-13T17:56:26.744Z,97756.51
2019-01-13T17:58:53.635Z,97751.98
2019-01-13T18:01:30.683Z,97780.22
2019-01-13T18:03:57.781Z,97721.16
2019-01-13T18:06:27.484Z,97732.85
2019-01-13T18:08:54.338Z,97735.77
2019-01-13T18:11:21.142Z,97706.72
2019-01-13T18:13:47.878Z,97710.22
2019-01-13T18:16:15.232Z,97729.66
2019-01-13T18:18:43.519Z,97718.31
2019-01-13T18:21:10.419Z,97705.69
2019-01-13T18:23:37.332Z,97707.00
2019-01-13T18:26:04.288Z,97698.78
2019-01-13T18:28:31.452Z,97699.87
2019-01-13T18:30:58.353Z,97675.66
2019-01-13T18:33:27.064Z,97669.63
2019-01-13T18:35:53.904Z,97671.97
2019-01-13T18:38:22.056Z,97677.20
2019-01-13T18:40:49.304Z,97673.75
2019-01-13T18:43:16.188Z,97671.06
2019-01-13T18:45:43.412Z,97683.13
2019-01-13T18:48:10.231Z,97680.81
2019-01-13T18:50:37.071Z,97687.34
2019-01-13T18:53:06.682Z,97697.41
2019-01-13T18:55:33.438Z,97688.69
2019-01-13T18:58:00.510Z,97687.34
2019-01-13T19:00:32.279Z,97683.91
2019-01-13T19:02:59.498Z,97669.69
2019-01-13T19:05:26.438Z,97669.19
2019-01-13T19:07:53.348Z,97662.87
2019-01-13T19:10:32.948Z,97665.00
2019-01-13T19:13:07.862Z,97680.55
2019-01-13T19:15:34.695Z,97686.02
2019-01-13T19:18:01.725Z,97676.54
2019-01-13T19:20:32.418Z,97682.66
2019-01-13T19:23:11.452Z,97682.22
2019-01-13T19:25:38.496Z,97677.18
2019-01-13T19:28:05.483Z,97678.88
2019-01-13T19:30:32.232Z,97687.83
2019-01-13T19:32:59.323Z,97693.83
2019-01-13T19:35:26.354Z,97708.03
2019-01-13T19:37:53.207Z,97722.70
2019-01-13T19:40:20.023Z,97712.23
2019-01-13T19:43:12.676Z,97720.39
2019-01-13T19:45:39.494Z,97723.84
2019-01-13T19:48:06.398Z,97708.22
2019-01-13T19:50:33.900Z,97708.11
2019-01-13T19:53:01.067Z,97718.86
2019-01-13T19:55:27.924Z,97728.90
2019-01-13T19:57:54.847Z,97731.30
2019-01-13T20:00:30.569Z,97733.16
2019-01-13T20:02:57.717Z,97721.02
2019-01-13T20:05:24.574Z,97734.98
2019-01-13T20:07:51.350Z,97711.48
2019-01-13T20:10:19.239Z,97724.45
2019-01-13T20:12:46.035Z,97730.56
2019-01-13T20:15:14.196Z,97710.59
2019-01-13T20:17:41.081Z,97711.91
2019-01-13T20:20:09.336Z,97702.72
2019-01-13T20:22:37.221Z,97710.80
2019-01-13T20:25:06.071Z,97705.59
2019-01-13T20:27:32.873Z,97710.14
2019-01-13T20:29:59.658Z,97691.09
2019-01-13T20:32:26.402Z,97690.31
2019-01-13T20:34:54.670Z,97693.45
2019-01-13T20:37:24.482Z,97685.78
2019-01-13T20:39:51.327Z,97683.48
2019-01-13T20:42:18.233Z,97690.91
2019-01-13T20:44:45.615Z,97693.52
2019-01-13T20:47:12.467Z,97738.75
2019-01-13T20:49:39.535Z,97701.05
2019-01-13T20:52:06.694Z,97700.58
2019-01-13T20:54:33.970Z,97697.47
2019-01-13T20:57:00.806Z,97697.16
2019-01-13T20:59:27.567Z,97689.75
2019-01-13T21:01:54.934Z,97694.50
2019-01-13T21:04:21.824Z,97691.57
2019-01-13T21:06:48.577Z,97688.44
2019-01-13T21:09:15.676Z,97700.80
2019-01-13T21:11:42.840Z,97694.70
2019-01-13T21:14:10.439Z,97697.13
2019-01-13T21:16:37.624Z,97691.81
2019-01-13T21:19:04.390Z,97701.55
2019-01-13T21:21:31.407Z,97699.23
2019-01-13T21:24:01.918Z,97714.28
2019-01-13T21:26:29.099Z,97725.47
2019-01-13T21:28:56.094Z,97718.67
2019-01-13T21:31:23.180Z,97722.33
2019-01-13T21:33:49.947Z,97714.27
2019-01-13T21:36:16.740Z,97693.22
2019-01-13T21:38:45.528Z,97701.65
2019-01-13T21:41:12.563Z,97706.10
2019-01-13T21:43:39.460Z,97708.73
2019-01-13T21:46:06.403Z,97713.45
2019-01-13T21:48:33.362Z,97707.87
2019-01-13T21:51:00.227Z,97701.91
2019-01-13T21:53:27.074Z,97713.45
2019-01-13T21:55:53.951Z,97712.30
2019-01-13T21:58:20.700Z,97718.66
2019-01-13T22:00:47.648Z,97723.31
2019-01-13T22:03:15.225Z,97716.55
2019-01-13T22:05:42.032Z,97737.60
2019-01-13T22:08:08.777Z,97739.77
2019-01-13T22:10:35.643Z,97730.63
2019-01-13T22:13:02.371Z,97757.94
2019-01-13T22:15:30.839Z,97751.26
2019-01-13T22:17:59.503Z,97772.80
2019-01-13T22:20:26.795Z,97787.80
2019-01-13T22:22:53.599Z,97774.13
2019-01-13T22:25:20.377Z,97763.06
2019-01-13T22:27:47.122Z,97763.23
2019-01-13T22:30:16.302Z,97766.14
2019-01-13T22:32:43.514Z,97755.34
2019-01-13T22:35:10.763Z,97762.61
2019-01-13T22:37:37.575Z,97765.89
2019-01-13T22:40:05.371Z,97747.48
2019-01-13T22:42:32.130Z,97752.70
2019-01-13T22:44:58.922Z,97758.59
2019-01-13T22:47:28.439Z,97767.80
2019-01-13T22:49:55.261Z,97777.61
2019-01-13T22:52:24.699Z,97770.52
2019-01-13T22:54:51.466Z,97776.80
2019-01-13T22:57:18.206Z,97783.39
2019-01-13T22:59:44.998Z,97778.70
2019-01-13T23:02:11.738Z,97768.23
2019-01-13T23:04:38.547Z,97782.70
2019-01-13T23:07:05.298Z,97782.17
2019-01-13T23:09:32.146Z,97779.27
2019-01-13T23:11:59.015Z,97784.27
2019-01-13T23:14:26.169Z,97793.98
2019-01-13T23:16:53.040Z,97783.41
2019-01-13T23:19:19.787Z,97799.46
2019-01-13T23:21:46.988Z,97802.16
2019-01-13T23:24:13.832Z,97795.83
2019-01-13T23:26:43.335Z,97796.32
2019-01-13T23:29:10.091Z,97789.23
2019-01-13T23:31:37.045Z,97788.16
2019-01-13T23:34:03.941Z,97795.02
2019-01-13T23:36:30.755Z,97798.73
2019-01-13T23:38:58.290Z,97809.77
2019-01-13T23:41:25.048Z,97801.07
2019-01-13T23:43:51.771Z,97808.95
2019-01-13T23:46:18.543Z,97807.97
2019-01-13T23:48:45.310Z,97807.72
2019-01-13T23:51:12.183Z,97808.75
2019-01-13T23:53:40.384Z,97800.84
2019-01-13T23:56:07.226Z,97806.06
2019-01-13T23:58:33.961Z,97807.15
